Flight Track Log - Related Links

Times and Time Zones

All times are in EDT time to prevent confusion due to time zone crossing. See the ASQ5738 flight status page for this flight to view local times or setup timezone preferences in your user account.

Time Position Orientation Groundspeed Altitude Reporting Facility
EDT Latitude Longitude Course Direction KTS MPH feet Rate Location/Type
Thu 10:35:47 42.7236 -73.8081 198° South 146 168 1,300  Level Boston Center
Thu 10:36:48 42.7186 -73.8644 263° West 231 266 3,300 2,294 Climbing Boston Center
Thu 10:38:00 42.5256 -74.0324 196° South  Level Estimated
Thu 10:38:03 42.7886 -73.9283 326° Northwest 301 346 6,500  Level Boston Center
Thu 10:39:00 42.4355 -73.9986 165° South  Level FlightAware Approximate
Thu 10:39:03 42.8547 -73.9894 326° Northwest 301 346 9,100  Level Boston Center
Thu 10:40:00 42.3619 -74.0767 198° South  Level Estimated
Thu 10:40:03 42.9247 -74.0478 329° Northwest 296 341 11,700  Level Boston Center
Thu 10:41:03 42.9858 -74.1344 314° West 295 339 14,100 2,136 Climbing Boston Center
Thu 10:42:15 42.9836 -74.2819 269° West 303 349 16,400 1,636 Climbing Boston Center
Thu 10:43:15 42.9508 -74.3719 244° Southwest 305 351 17,700 1,300 Climbing Boston Center
Thu 10:44:15 42.8678 -74.3608 174° South 235 270 19,000 1,400 Climbing Boston Center
Thu 10:45:15 42.7747 -74.3125 159° South 287 330 20,500 1,500 Climbing Boston Center
Thu 10:46:15 42.6900 -74.2650 158° South 308 354 22,000 1,500 Climbing Boston Center
Thu 10:47:15 42.6011 -74.2200 160° South 329 379 23,500 1,550 Climbing Boston Center
Thu 10:48:15 42.5061 -74.1722 160° South 329 379 25,100 1,450 Climbing Boston Center
Thu 10:49:15 42.4211 -74.1303 160° South 329 379 26,400 1,000 Climbing Boston Center
Thu 10:50:15 42.3342 -74.0858 159° South 329 379 27,100 600 Climbing Boston Center
Thu 10:51:15 42.2431 -74.0442 161° South 334 384 27,600 450 Climbing Boston Center
Thu 10:52:15 42.1431 -74.0417 179° South 344 396 28,000 200 Climbing Boston Center
Thu 10:53:15 42.0431 -74.0475 182° South 356 410 28,000  Level Boston Center
Thu 10:54:15 41.9411 -74.0367 175° South 369 425 28,000  Level Boston Center
Thu 10:55:15 41.8758 -73.9233 128° Southeast 337 388 28,000  Level Boston Center
Thu 10:56:15 41.8064 -73.8214 132° Southeast 350 403 28,000  Level Boston Center
Thu 10:57:54 41.6503 -73.8583 190° South 349 402 28,000  Level New York Center
Thu 10:58:54 41.5656 -73.9125 206° Southwest 362 417 28,000  Level New York Center
Thu 10:59:53 41.4842 -73.9972 218° Southwest 368 423 28,000 -50 Level New York Center
Thu 11:00:54 41.4006 -74.0844 218° Southwest 382 440 27,900  Descending New York Center
Thu 11:01:55 41.3189 -74.1717 219° Southwest 382 440 28,000 50 Climbing New York Center
Thu 11:02:55 41.2225 -74.2606 215° Southwest 387 445 28,000  Level New York Center
Thu 11:03:53 41.1386 -74.3497 219° Southwest 392 451 28,000  Level New York Center
Thu 11:04:54 41.0544 -74.4417 219° Southwest 392 451 28,000  Level New York Center
Thu 11:05:55 40.9664 -74.5275 216° Southwest 392 451 28,000  Level New York Center
Thu 11:06:53 40.8900 -74.6331 226° Southwest 397 457 28,000  Level New York Center
Thu 11:07:54 40.8503 -74.7681 249° West 394 453 28,000  Level New York Center
Thu 11:08:53 40.8081 -74.9053 248° West 394 453 28,000 -300 Level New York Center
Thu 11:09:54 40.7656 -75.0397 247° West 400 460 27,400 -793 Descending New York Center
Thu 11:10:54 40.7231 -75.1794 248° West 405 466 26,400 -992 Descending New York Center
Thu 11:11:55 40.6683 -75.3019 240° Southwest 410 472 25,400 -1,008 Descending New York Center
Thu 11:12:53 40.6078 -75.4153 235° Southwest 392 451 24,400 -1,017 Descending New York Center
Thu 11:13:53 40.5469 -75.5286 235° Southwest 392 451 23,400 -984 Descending New York Center
Thu 11:14:55 40.4886 -75.6339 234° Southwest 381 438 22,400 -1,008 Descending New York Center
Thu 11:15:52 40.4297 -75.7417 234° Southwest 369 425 21,400 -1,017 Descending New York Center
Thu 11:16:53 40.3689 -75.8489 233° Southwest 364 419 20,400 -694 Descending New York Center
Thu 11:17:53 40.3106 -75.9481 232° Southwest 364 419 20,000 -250 Descending New York Center
Thu 11:18:53 40.2561 -76.0472 234° Southwest 358 412 19,900 -545 Descending New York Center
Thu 11:19:54 40.2014 -76.1492 235° Southwest 353 406 18,900 -836 Descending New York Center
Thu 11:20:55 40.1514 -76.2378 234° Southwest 348 400 18,200 -807 Descending New York Center
Thu 11:21:53 40.0939 -76.3525 237° Southwest 343 395 17,300 -857 Descending New York Center
Thu 11:22:54 40.0500 -76.4439 238° Southwest 337 388 16,500 -770 Descending New York Center
Thu 11:25:00 39.9500 -76.6500 238° Southwest 318 366 14,900 -500 Descending Potomac TRACON
Thu 11:26:06 39.9000 -76.7500 237° Southwest 314 361 14,900 48 Level Potomac TRACON
Thu 11:27:06 39.8667 -76.8500 247° West 314 361 15,000 -300 Climbing Potomac TRACON
Thu 11:28:06 39.8167 -76.9500 237° Southwest 318 366 14,300 -895 Descending Potomac TRACON
Thu 11:29:00 39.7667 -77.0500 237° Southwest 323 372 13,300 -1,105 Descending Potomac TRACON
Thu 11:30:00 39.7167 -77.1500 237° Southwest 317 365 12,200 -1,096 Descending Potomac TRACON
Thu 11:30:55 39.6833 -77.2167 237° Southwest 314 361 11,200 -1,266 Descending Potomac TRACON
Thu 11:31:49 39.6167 -77.3000 224° Southwest 300 345 9,900 -1,261 Descending Potomac TRACON
Thu 11:32:54 39.5333 -77.3500 205° Southwest 286 329 8,700 -1,048 Descending Potomac TRACON
Thu 11:33:55 39.4667 -77.3833 201° Southwest 288 331 7,700 -887 Descending Potomac TRACON
Thu 11:34:49 39.3833 -77.4000 189° South 279 321 7,000 -895 Descending Potomac TRACON
Thu 11:35:49 39.3167 -77.4333 201° Southwest 274 315 6,000 -950 Descending Potomac TRACON
Thu 11:36:49 39.2500 -77.4500 191° South 272 313 5,100 -800 Descending Potomac TRACON
Thu 11:37:49 39.1667 -77.4500 180° South 277 319 4,400 -1,158 Descending Potomac TRACON
Thu 11:38:43 39.1000 -77.4500 180° South 265 305 2,900 -1,667 Descending Potomac TRACON

Login

Don't have an account? Register now (free) for customized features, flight alerts, and more!